createdAt,value
2023-03-20T00:01:19.592Z,55.40
2023-03-20T00:03:52.980Z,56.73
2023-03-20T00:06:28.945Z,56.23
2023-03-20T00:09:07.305Z,56.80
2023-03-20T00:11:49.350Z,55.83
2023-03-20T00:14:24.941Z,53.10
2023-03-20T00:16:58.873Z,51.03
2023-03-20T00:19:32.404Z,56.93
2023-03-20T00:22:06.093Z,53.00
2023-03-20T00:24:39.952Z,54.20
2023-03-20T00:27:16.873Z,53.67
2023-03-20T00:29:49.680Z,52.57
2023-03-20T00:32:23.627Z,50.03
2023-03-20T00:34:56.760Z,54.07
2023-03-20T00:37:29.959Z,59.17
2023-03-20T00:40:04.606Z,54.37
2023-03-20T00:42:39.825Z,52.40
2023-03-20T00:45:18.226Z,55.13
2023-03-20T00:47:54.032Z,54.90
2023-03-20T00:50:30.970Z,53.27
2023-03-20T00:53:04.362Z,58.13
2023-03-20T00:55:38.819Z,58.27
2023-03-20T00:58:14.619Z,53.23
2023-03-20T01:00:50.115Z,53.47
2023-03-20T01:03:25.785Z,54.27
2023-03-20T01:05:59.011Z,56.37
2023-03-20T01:08:32.063Z,60.77
2023-03-20T01:11:05.301Z,59.57
2023-03-20T01:13:39.840Z,57.13
2023-03-20T01:16:23.316Z,53.07
2023-03-20T01:18:57.681Z,51.80
2023-03-20T01:21:30.749Z,51.47
2023-03-20T01:24:04.177Z,56.17
2023-03-20T01:26:40.076Z,52.23
2023-03-20T01:29:22.238Z,57.20
2023-03-20T01:31:57.380Z,55.40
2023-03-20T01:34:31.728Z,51.67
2023-03-20T01:37:11.444Z,56.30
2023-03-20T01:39:45.157Z,57.80
2023-03-20T01:42:19.621Z,55.53
2023-03-20T01:44:53.008Z,55.80
2023-03-20T01:47:28.612Z,57.10
2023-03-20T01:50:29.355Z,59.07
2023-03-20T01:53:27.384Z,62.03
2023-03-20T01:56:03.894Z,62.60
2023-03-20T01:58:48.042Z,60.40
2023-03-20T02:01:22.771Z,63.67
2023-03-20T02:03:55.981Z,64.20
2023-03-20T02:06:45.540Z,62.03
2023-03-20T02:09:57.568Z,62.10
2023-03-20T02:12:44.703Z,67.57
2023-03-20T02:15:20.214Z,64.30
2023-03-20T02:18:06.307Z,63.77
2023-03-20T02:21:04.487Z,69.20
2023-03-20T02:24:09.887Z,64.73
2023-03-20T02:26:49.285Z,62.93
2023-03-20T02:29:51.646Z,68.05
2023-03-20T02:32:53.316Z,65.00
2023-03-20T02:35:39.197Z,63.45
2023-03-20T02:38:25.908Z,64.70
2023-03-20T02:41:05.491Z,62.23
2023-03-20T02:43:45.677Z,71.83
2023-03-20T02:46:29.418Z,65.20
2023-03-20T02:49:09.605Z,67.37
2023-03-20T02:51:49.854Z,68.63
2023-03-20T02:54:30.140Z,65.77
2023-03-20T02:57:08.742Z,64.87
2023-03-20T02:59:49.851Z,64.73
2023-03-20T03:02:28.942Z,63.17
2023-03-20T03:05:05.798Z,66.20
2023-03-20T03:07:41.788Z,70.07
2023-03-20T03:10:22.760Z,59.70
2023-03-20T03:12:59.584Z,62.77
2023-03-20T03:15:36.459Z,65.10
2023-03-20T03:18:14.331Z,68.13
2023-03-20T03:20:49.627Z,72.53
2023-03-20T03:23:27.887Z,66.77
2023-03-20T03:26:04.717Z,65.60
2023-03-20T03:28:42.503Z,67.30
2023-03-20T03:31:19.245Z,61.57
2023-03-20T03:33:55.638Z,66.13
2023-03-20T03:36:41.567Z,67.50
2023-03-20T03:39:23.006Z,62.77
2023-03-20T03:42:05.263Z,67.03
2023-03-20T03:44:48.352Z,61.17
2023-03-20T03:47:27.930Z,61.77
2023-03-20T03:50:05.867Z,63.47
2023-03-20T03:52:42.980Z,62.70
2023-03-20T03:55:18.217Z,63.55
2023-03-20T03:58:06.018Z,62.90
2023-03-20T04:00:39.129Z,64.45
2023-03-20T04:03:13.884Z,57.85
2023-03-20T04:05:49.504Z,62.43
2023-03-20T04:08:22.519Z,64.63
2023-03-20T04:10:55.556Z,62.43
2023-03-20T04:13:28.501Z,66.87
2023-03-20T04:16:01.240Z,61.37
2023-03-20T04:18:35.140Z,63.45
2023-03-20T04:21:11.305Z,67.57
2023-03-20T04:23:43.688Z,58.75
2023-03-20T04:26:16.419Z,62.50
2023-03-20T04:28:49.083Z,63.50
2023-03-20T04:31:40.109Z,67.55
2023-03-20T04:34:18.222Z,62.27
2023-03-20T04:37:05.586Z,61.07
2023-03-20T04:40:00.627Z,69.20
2023-03-20T04:42:34.523Z,64.93
2023-03-20T04:45:11.190Z,64.90
2023-03-20T04:47:45.262Z,58.20
2023-03-20T04:50:18.952Z,59.47
2023-03-20T04:52:52.324Z,65.27
2023-03-20T04:55:25.467Z,63.70
2023-03-20T04:58:00.189Z,61.67
2023-03-20T05:00:35.440Z,66.67
2023-03-20T05:03:11.004Z,60.83
2023-03-20T05:05:45.835Z,62.97
2023-03-20T05:08:18.685Z,61.33
2023-03-20T05:10:52.329Z,61.90
2023-03-20T05:13:51.411Z,61.30
2023-03-20T05:16:43.105Z,62.43
2023-03-20T05:19:43.329Z,70.80
2023-03-20T05:22:20.023Z,62.17
2023-03-20T05:25:12.199Z,63.83
2023-03-20T05:27:54.386Z,63.40
2023-03-20T05:30:39.298Z,67.77
2023-03-20T05:33:31.042Z,70.53
2023-03-20T05:36:22.977Z,69.13
2023-03-20T05:39:14.595Z,60.88
2023-03-20T05:42:06.795Z,67.00
2023-03-20T05:45:16.094Z,63.37
2023-03-20T05:48:08.193Z,64.70
2023-03-20T05:50:41.395Z,63.77
2023-03-20T05:53:41.272Z,70.57
2023-03-20T05:56:40.354Z,65.83
2023-03-20T05:59:42.491Z,63.78
2023-03-20T06:02:21.614Z,67.40
2023-03-20T06:05:03.450Z,65.17
2023-03-20T06:07:41.833Z,60.13
2023-03-20T06:10:20.118Z,64.40
2023-03-20T06:12:53.310Z,67.25
2023-03-20T06:15:31.882Z,62.60
2023-03-20T06:18:11.767Z,67.95
2023-03-20T06:20:44.183Z,62.35
2023-03-20T06:23:16.935Z,67.03
2023-03-20T06:25:49.030Z,66.90
2023-03-20T06:28:22.558Z,62.85
2023-03-20T06:31:01.521Z,63.97
2023-03-20T06:33:34.290Z,66.53
2023-03-20T06:36:08.039Z,60.95
2023-03-20T06:38:40.322Z,64.70
2023-03-20T06:41:27.799Z,66.30
2023-03-20T06:44:04.726Z,65.30
2023-03-20T06:46:56.233Z,57.63
2023-03-20T06:49:29.393Z,65.83
2023-03-20T06:52:03.162Z,61.50
2023-03-20T06:54:37.181Z,58.27
2023-03-20T06:57:10.460Z,59.57
2023-03-20T06:59:43.630Z,62.90
2023-03-20T07:02:17.199Z,63.67
2023-03-20T07:04:51.016Z,65.57
2023-03-20T07:07:24.646Z,59.27
2023-03-20T07:09:58.409Z,64.30
2023-03-20T07:12:32.569Z,62.63
2023-03-20T07:15:07.188Z,58.23
2023-03-20T07:17:40.276Z,63.70
2023-03-20T07:20:15.175Z,59.83
2023-03-20T07:22:49.343Z,66.27
2023-03-20T07:25:39.671Z,61.63
2023-03-20T07:28:28.352Z,61.67
2023-03-20T07:31:20.306Z,61.80
2023-03-20T07:33:53.866Z,57.13
2023-03-20T07:36:27.009Z,60.60
2023-03-20T07:39:00.145Z,65.47
2023-03-20T07:41:33.806Z,60.53
2023-03-20T07:44:14.565Z,65.93
2023-03-20T07:46:57.748Z,56.20
2023-03-20T07:49:30.970Z,61.93
2023-03-20T07:52:04.379Z,57.50
2023-03-20T07:54:37.367Z,57.73
2023-03-20T07:57:10.352Z,56.37
2023-03-20T07:59:43.533Z,56.27
2023-03-20T08:02:19.702Z,52.97
2023-03-20T08:04:52.992Z,48.57
2023-03-20T08:07:25.938Z,47.00
2023-03-20T08:09:58.227Z,48.92
2023-03-20T08:12:31.150Z,47.45
2023-03-20T08:15:06.007Z,49.33
2023-03-20T08:17:38.136Z,52.50
2023-03-20T08:20:11.333Z,45.60
2023-03-20T08:22:45.530Z,50.83
2023-03-20T08:25:18.180Z,46.40
2023-03-20T08:27:51.170Z,44.55
2023-03-20T08:30:23.457Z,45.80
2023-03-20T08:32:56.751Z,46.55
2023-03-20T08:35:33.690Z,49.20
2023-03-20T08:38:07.033Z,50.25
2023-03-20T08:40:41.468Z,49.00
2023-03-20T08:43:13.663Z,45.48
2023-03-20T08:48:16.523Z,42.75
2023-03-20T08:50:48.753Z,47.65
2023-03-20T08:53:22.203Z,49.45
2023-03-20T08:55:55.193Z,45.75
2023-03-20T08:58:27.437Z,40.80
2023-03-20T09:01:03.232Z,41.23
2023-03-20T09:03:36.652Z,37.90
2023-03-20T09:06:09.955Z,36.98
2023-03-20T09:08:42.113Z,36.48
2023-03-20T09:11:14.269Z,37.88
2023-03-20T09:13:46.276Z,31.97
2023-03-20T09:16:18.392Z,33.02
2023-03-20T09:18:51.077Z,30.85
2023-03-20T09:21:23.165Z,29.57
2023-03-20T09:23:55.858Z,34.05
2023-03-20T09:26:28.093Z,33.98
2023-03-20T09:31:30.360Z,30.55
2023-03-20T09:34:02.415Z,33.95
2023-03-20T09:39:05.543Z,26.52
2023-03-20T09:41:49.187Z,35.68
2023-03-20T09:44:37.851Z,37.77
2023-03-20T09:47:20.588Z,29.40
2023-03-20T09:49:58.767Z,30.45
2023-03-20T09:52:32.215Z,32.03
2023-03-20T09:55:08.133Z,27.13
2023-03-20T09:57:41.980Z,29.90
2023-03-20T10:00:18.921Z,27.73
2023-03-20T10:02:52.720Z,25.57
2023-03-20T10:05:28.140Z,26.27
2023-03-20T10:08:01.391Z,22.45
2023-03-20T10:10:39.541Z,21.82
2023-03-20T10:13:19.581Z,18.80
2023-03-20T10:15:54.086Z,21.90
2023-03-20T10:18:28.851Z,22.17
2023-03-20T10:21:03.746Z,20.00
2023-03-20T10:23:37.707Z,22.17
2023-03-20T10:26:12.104Z,22.55
2023-03-20T10:28:47.576Z,21.82
2023-03-20T10:31:28.941Z,19.25
2023-03-20T10:34:05.809Z,21.07
2023-03-20T10:36:54.569Z,20.27
2023-03-20T10:39:39.437Z,22.40
2023-03-20T10:42:18.520Z,20.90
2023-03-20T10:44:51.772Z,18.20
2023-03-20T10:47:26.851Z,17.07
2023-03-20T10:49:59.984Z,17.40
2023-03-20T10:52:33.907Z,18.48
2023-03-20T10:55:08.614Z,18.62
2023-03-20T10:57:46.563Z,18.52
2023-03-20T11:00:21.825Z,19.70
2023-03-20T11:02:54.199Z,18.15
2023-03-20T11:05:29.797Z,17.45
2023-03-20T11:08:07.740Z,19.87
2023-03-20T11:10:41.378Z,19.02
2023-03-20T11:13:21.281Z,19.95
2023-03-20T11:15:57.670Z,23.00
2023-03-20T11:18:32.703Z,20.50
2023-03-20T11:21:05.727Z,19.32
2023-03-20T11:23:38.763Z,21.70
2023-03-20T11:26:20.180Z,17.48
2023-03-20T11:28:54.317Z,20.72
2023-03-20T11:31:32.169Z,19.02
2023-03-20T11:34:11.052Z,23.90
2023-03-20T11:36:50.803Z,16.27
2023-03-20T11:39:29.704Z,17.83
2023-03-20T11:42:03.991Z,18.73
2023-03-20T11:44:37.684Z,17.60
2023-03-20T11:47:20.385Z,18.23
2023-03-20T11:49:58.756Z,17.30
2023-03-20T11:52:35.274Z,15.07
2023-03-20T11:55:25.825Z,16.83
2023-03-20T11:58:03.067Z,15.03
2023-03-20T12:00:42.575Z,20.00
2023-03-20T12:03:43.241Z,16.67
2023-03-20T12:06:21.255Z,15.57
2023-03-20T12:08:59.329Z,15.03
2023-03-20T12:11:46.657Z,15.30
2023-03-20T12:14:30.058Z,18.13
2023-03-20T12:17:22.424Z,14.67
2023-03-20T12:19:59.709Z,13.87
2023-03-20T12:22:40.439Z,13.70
2023-03-20T12:25:23.346Z,13.97
2023-03-20T12:28:04.352Z,15.37
2023-03-20T12:30:53.027Z,14.03
2023-03-20T12:33:40.387Z,14.13
2023-03-20T12:36:18.974Z,14.73
2023-03-20T12:38:52.190Z,14.83
2023-03-20T12:41:30.670Z,14.03
2023-03-20T12:44:22.636Z,13.70
2023-03-20T12:47:08.670Z,16.03
2023-03-20T12:49:52.919Z,14.47
2023-03-20T12:52:38.668Z,16.30
2023-03-20T12:55:27.242Z,15.57
2023-03-20T12:58:24.429Z,13.17
2023-03-20T13:01:05.892Z,15.67
2023-03-20T13:04:01.516Z,16.40
2023-03-20T13:06:44.091Z,13.43
2023-03-20T13:09:45.006Z,13.57
2023-03-20T13:12:31.953Z,14.30
2023-03-20T13:15:21.752Z,16.20
2023-03-20T13:18:03.021Z,13.03
2023-03-20T13:20:40.890Z,14.20
2023-03-20T13:23:23.786Z,13.80
2023-03-20T13:26:17.324Z,10.77
2023-03-20T13:29:00.460Z,13.70
2023-03-20T13:31:57.860Z,13.43
2023-03-20T13:34:54.191Z,15.97
2023-03-20T13:37:36.214Z,12.37
2023-03-20T13:40:20.520Z,11.85
2023-03-20T13:43:01.103Z,15.83
2023-03-20T13:45:41.319Z,13.73
2023-03-20T13:48:27.393Z,14.17
2023-03-20T13:51:09.007Z,14.37
2023-03-20T13:53:54.628Z,13.35
2023-03-20T13:56:39.222Z,13.03
2023-03-20T14:02:13.691Z,12.73
2023-03-20T14:04:47.758Z,12.37
2023-03-20T14:07:36.376Z,17.57
2023-03-20T14:10:42.415Z,16.07
2023-03-20T14:13:19.856Z,18.70
2023-03-20T14:15:57.989Z,14.10
2023-03-20T14:18:32.921Z,15.03
2023-03-20T14:21:13.605Z,13.27
2023-03-20T14:23:51.705Z,13.93
2023-03-20T14:26:29.044Z,17.20
2023-03-20T14:29:21.475Z,16.50
2023-03-20T14:32:04.076Z,16.23
2023-03-20T14:34:50.431Z,20.20
2023-03-20T14:37:39.766Z,19.60
2023-03-20T14:40:21.852Z,16.83
2023-03-20T14:43:01.029Z,26.03
2023-03-20T14:45:44.845Z,18.97
2023-03-20T14:48:32.235Z,15.03
2023-03-20T14:51:30.210Z,21.27
2023-03-20T14:54:27.889Z,16.17
2023-03-20T14:57:20.423Z,18.90
2023-03-20T14:59:56.623Z,27.27
2023-03-20T15:02:39.420Z,13.40
2023-03-20T15:05:29.431Z,16.23
2023-03-20T15:08:08.838Z,14.93
2023-03-20T15:10:52.146Z,15.20
2023-03-20T15:13:26.734Z,13.27
2023-03-20T15:16:04.983Z,15.17
2023-03-20T15:18:43.009Z,13.80
2023-03-20T15:21:21.544Z,16.10
2023-03-20T15:23:54.791Z,18.43
2023-03-20T15:26:30.069Z,18.07
2023-03-20T15:29:06.270Z,14.70
2023-03-20T15:31:42.143Z,14.35
2023-03-20T15:34:21.397Z,15.23
2023-03-20T15:36:57.132Z,13.00
2023-03-20T15:39:42.803Z,16.30
2023-03-20T15:42:18.578Z,14.50
2023-03-20T15:44:53.864Z,16.37
2023-03-20T15:47:28.188Z,18.87
2023-03-20T15:50:03.151Z,16.30
2023-03-20T15:52:42.680Z,18.93
2023-03-20T15:55:20.279Z,14.67
2023-03-20T15:57:57.640Z,16.93
2023-03-20T16:00:35.762Z,16.83
2023-03-20T16:03:17.357Z,27.87
2023-03-20T16:05:53.361Z,15.73
2023-03-20T16:08:28.968Z,17.07
2023-03-20T16:11:04.410Z,16.93
2023-03-20T16:13:42.312Z,16.70
2023-03-20T16:16:19.299Z,20.33
2023-03-20T16:18:53.238Z,19.83
2023-03-20T16:21:29.915Z,18.10
2023-03-20T16:24:07.139Z,18.83
2023-03-20T16:26:42.643Z,19.87
2023-03-20T16:29:17.164Z,20.17
2023-03-20T16:31:54.934Z,20.77
2023-03-20T16:34:34.154Z,23.23
2023-03-20T16:37:26.845Z,17.97
2023-03-20T16:40:18.950Z,22.70
2023-03-20T16:45:35.105Z,19.30
2023-03-20T16:48:32.036Z,18.90
2023-03-20T16:51:17.456Z,22.47
2023-03-20T16:53:52.983Z,22.93
2023-03-20T16:56:29.809Z,19.50
2023-03-20T16:59:10.720Z,24.03
2023-03-20T17:01:48.698Z,21.70
2023-03-20T17:04:25.552Z,18.57
2023-03-20T17:07:02.605Z,19.60
2023-03-20T17:09:36.843Z,20.07
2023-03-20T17:12:19.130Z,27.83
2023-03-20T17:14:52.411Z,26.77
2023-03-20T17:17:27.573Z,23.70
2023-03-20T17:20:01.358Z,21.67
2023-03-20T17:22:35.109Z,26.37
2023-03-20T17:25:12.065Z,23.33
2023-03-20T17:27:45.761Z,23.73
2023-03-20T17:30:22.860Z,24.40
2023-03-20T17:32:56.557Z,23.53
2023-03-20T17:35:29.882Z,24.07
2023-03-20T17:38:03.425Z,21.47
2023-03-20T17:40:37.439Z,21.33
2023-03-20T17:43:14.627Z,24.57
2023-03-20T17:45:49.300Z,21.47
2023-03-20T17:48:23.334Z,21.93
2023-03-20T17:50:56.594Z,24.67
2023-03-20T17:53:31.097Z,20.27
2023-03-20T17:56:05.049Z,23.70
2023-03-20T17:58:39.604Z,26.17
2023-03-20T18:01:13.337Z,25.67
2023-03-20T18:03:47.038Z,25.10
2023-03-20T18:06:27.187Z,26.93
2023-03-20T18:09:02.832Z,25.23
2023-03-20T18:11:36.274Z,27.33
2023-03-20T18:14:12.539Z,35.63
2023-03-20T18:16:46.242Z,27.10
2023-03-20T18:19:26.691Z,22.80
2023-03-20T18:22:01.250Z,26.67
2023-03-20T18:24:35.018Z,25.90
2023-03-20T18:27:09.049Z,25.53
2023-03-20T18:29:42.651Z,26.80
2023-03-20T18:32:16.043Z,29.07
2023-03-20T18:34:49.237Z,27.63
2023-03-20T18:37:22.691Z,25.80
2023-03-20T18:39:58.087Z,26.07
2023-03-20T18:42:31.546Z,28.03
2023-03-20T18:45:05.480Z,31.67
2023-03-20T18:47:38.871Z,31.63
2023-03-20T18:50:27.375Z,28.57
2023-03-20T18:53:02.256Z,32.87
2023-03-20T18:55:35.931Z,35.60
2023-03-20T18:58:17.337Z,27.93
2023-03-20T19:00:50.842Z,43.27
2023-03-20T19:03:26.071Z,38.10
2023-03-20T19:06:01.138Z,33.07
2023-03-20T19:08:37.375Z,37.67
2023-03-20T19:11:15.677Z,34.70
2023-03-20T19:13:51.351Z,41.80
2023-03-20T19:16:26.899Z,37.67
2023-03-20T19:19:02.264Z,31.90
2023-03-20T19:21:36.980Z,36.43
2023-03-20T19:24:11.993Z,36.03
2023-03-20T19:26:46.077Z,38.90
2023-03-20T19:29:19.467Z,40.63
2023-03-20T19:31:52.699Z,41.33
2023-03-20T19:35:10.807Z,39.00
2023-03-20T19:37:21.080Z,43.73
2023-03-20T19:39:54.762Z,38.07
2023-03-20T19:42:52.918Z,38.23
2023-03-20T19:45:21.003Z,42.48
2023-03-20T19:47:55.936Z,46.40
2023-03-20T19:50:33.968Z,40.77
2023-03-20T19:53:11.168Z,43.33
2023-03-20T19:55:45.024Z,41.37
2023-03-20T19:58:17.597Z,40.00
2023-03-20T20:01:06.211Z,41.37
2023-03-20T20:03:44.863Z,34.00
2023-03-20T20:06:22.212Z,41.10
2023-03-20T20:08:57.395Z,52.07
2023-03-20T20:11:30.894Z,49.27
2023-03-20T20:14:08.731Z,46.37
2023-03-20T20:16:43.559Z,45.17
2023-03-20T20:19:17.319Z,53.47
2023-03-20T20:22:19.417Z,50.10
2023-03-20T20:24:44.690Z,56.13
2023-03-20T20:27:19.080Z,52.53
2023-03-20T20:29:54.607Z,49.45
2023-03-20T20:32:29.906Z,56.40
2023-03-20T20:38:33.517Z,60.50
2023-03-20T20:40:51.647Z,64.47
2023-03-20T20:43:50.675Z,66.17
2023-03-20T20:46:19.175Z,65.43
2023-03-20T20:48:53.009Z,65.07
2023-03-20T20:51:27.664Z,65.78
2023-03-20T20:54:00.949Z,62.80
2023-03-20T20:56:34.762Z,63.07
2023-03-20T20:59:08.437Z,59.67
2023-03-20T21:01:42.053Z,55.60
2023-03-20T21:04:16.456Z,60.03
2023-03-20T21:07:08.685Z,56.40
2023-03-20T21:09:43.846Z,57.17
2023-03-20T21:12:33.516Z,56.63
2023-03-20T21:15:11.834Z,51.75
2023-03-20T21:17:59.466Z,53.47
2023-03-20T21:20:34.544Z,55.40
2023-03-20T21:23:07.962Z,51.10
2023-03-20T21:25:43.717Z,49.70
2023-03-20T21:28:20.017Z,48.63
2023-03-20T21:31:20.520Z,48.10
2023-03-20T21:33:46.977Z,53.17
2023-03-20T21:36:20.343Z,48.87
2023-03-20T21:39:07.306Z,52.53
2023-03-20T21:41:42.318Z,51.70
2023-03-20T21:44:24.630Z,52.53
2023-03-20T21:53:40.359Z,49.47
2023-03-20T21:59:24.033Z,47.80
2023-03-20T22:02:01.697Z,48.50
2023-03-20T22:07:58.270Z,46.83
2023-03-20T22:14:13.507Z,49.50
2023-03-20T22:19:56.252Z,53.20
2023-03-20T22:23:03.462Z,55.63
2023-03-20T22:25:38.864Z,56.23
2023-03-20T22:28:22.363Z,58.77
2023-03-20T22:31:26.569Z,58.23
2023-03-20T22:34:25.683Z,54.87
2023-03-20T22:45:12.881Z,54.07
2023-03-20T22:47:46.921Z,57.10
2023-03-20T22:50:20.108Z,52.87
2023-03-20T22:52:55.762Z,49.20
2023-03-20T22:55:30.215Z,51.50
2023-03-20T22:58:07.822Z,51.17
2023-03-20T23:00:42.316Z,53.37
2023-03-20T23:03:29.457Z,53.97
2023-03-20T23:06:09.356Z,50.60
2023-03-20T23:08:50.753Z,52.83
2023-03-20T23:11:28.859Z,48.37
2023-03-20T23:14:03.823Z,52.53
2023-03-20T23:16:39.335Z,53.00
2023-03-20T23:19:12.477Z,50.93
2023-03-20T23:21:45.554Z,49.37
2023-03-20T23:24:18.939Z,49.43
2023-03-20T23:26:52.881Z,48.93
2023-03-20T23:29:26.563Z,51.23
2023-03-20T23:31:59.992Z,49.05
2023-03-20T23:34:33.500Z,48.07
2023-03-20T23:37:07.082Z,48.20
2023-03-20T23:39:41.291Z,47.67
2023-03-20T23:42:29.601Z,49.20
2023-03-20T23:45:17.127Z,47.50
2023-03-20T23:47:53.250Z,50.23
2023-03-20T23:50:32.178Z,51.77
2023-03-20T23:53:20.041Z,51.10
2023-03-20T23:55:57.563Z,49.37
2023-03-20T23:58:31.170Z,50.63
